createdAt,value
2022-10-08T00:01:25.904Z,1.60
2022-10-08T00:03:55.584Z,1.50
2022-10-08T00:06:25.410Z,1.85
2022-10-08T00:08:56.657Z,1.25
2022-10-08T00:11:27.644Z,1.55
2022-10-08T00:13:56.547Z,1.60
2022-10-08T00:16:26.875Z,1.45
2022-10-08T00:18:56.327Z,1.30
2022-10-08T00:21:26.151Z,1.30
2022-10-08T00:23:55.737Z,1.60
2022-10-08T00:26:25.911Z,0.93
2022-10-08T00:28:56.229Z,1.40
2022-10-08T00:31:26.848Z,1.40
2022-10-08T00:33:56.587Z,1.63
2022-10-08T00:36:26.350Z,1.60
2022-10-08T00:38:58.101Z,2.10
2022-10-08T00:41:28.337Z,1.30
2022-10-08T00:43:58.014Z,1.30
2022-10-08T00:46:30.248Z,1.40
2022-10-08T00:49:02.918Z,1.95
2022-10-08T00:51:33.126Z,1.73
2022-10-08T00:54:03.977Z,1.35
2022-10-08T00:56:34.585Z,1.33
2022-10-08T00:59:03.008Z,1.42
2022-10-08T01:01:30.900Z,1.60
2022-10-08T01:04:00.185Z,1.25
2022-10-08T01:06:31.001Z,1.30
2022-10-08T01:09:06.460Z,1.23
2022-10-08T01:11:49.052Z,1.65
2022-10-08T01:14:30.056Z,1.25
2022-10-08T01:17:07.310Z,1.95
2022-10-08T01:19:55.961Z,1.25
2022-10-08T01:22:41.366Z,1.30
2022-10-08T01:25:34.639Z,1.50
2022-10-08T01:28:21.855Z,1.98
2022-10-08T01:30:56.341Z,1.50
2022-10-08T01:33:28.073Z,1.48
2022-10-08T01:35:59.607Z,1.10
2022-10-08T01:38:31.569Z,1.40
2022-10-08T01:41:03.784Z,1.70
2022-10-08T01:43:36.792Z,1.30
2022-10-08T01:46:09.516Z,1.58
2022-10-08T01:48:41.129Z,1.48
2022-10-08T01:51:15.113Z,1.20
2022-10-08T01:53:46.988Z,1.45
2022-10-08T01:56:20.925Z,1.70
2022-10-08T01:58:54.447Z,1.48
2022-10-08T02:01:28.836Z,1.33
2022-10-08T02:04:14.318Z,2.03
2022-10-08T02:06:46.052Z,1.52
2022-10-08T02:09:14.054Z,1.50
2022-10-08T02:11:41.953Z,1.33
2022-10-08T02:14:11.872Z,1.50
2022-10-08T02:16:52.335Z,1.40
2022-10-08T02:19:29.819Z,1.23
2022-10-08T02:22:02.556Z,1.80
2022-10-08T02:24:37.829Z,1.27
2022-10-08T02:27:09.366Z,1.73
2022-10-08T02:29:44.279Z,1.55
2022-10-08T02:32:18.630Z,1.52
2022-10-08T02:34:51.790Z,2.00
2022-10-08T02:37:25.503Z,1.38
2022-10-08T02:40:00.682Z,1.48
2022-10-08T02:42:32.133Z,1.63
2022-10-08T02:45:07.534Z,1.70
2022-10-08T02:47:38.761Z,1.38
2022-10-08T02:50:12.325Z,1.30
2022-10-08T02:52:44.407Z,1.75
2022-10-08T02:55:20.182Z,1.30
2022-10-08T02:57:55.774Z,1.40
2022-10-08T03:00:25.897Z,1.50
2022-10-08T03:02:59.462Z,1.50
2022-10-08T03:05:29.025Z,1.13
2022-10-08T03:07:58.486Z,1.08
2022-10-08T03:10:30.486Z,1.30
2022-10-08T03:13:01.939Z,1.10
2022-10-08T03:15:33.270Z,1.55
2022-10-08T03:18:03.513Z,1.25
2022-10-08T03:20:33.052Z,1.30
2022-10-08T03:23:02.733Z,1.77
2022-10-08T03:25:30.585Z,1.20
2022-10-08T03:27:58.511Z,1.42
2022-10-08T03:30:26.425Z,1.08
2022-10-08T03:32:55.749Z,1.15
2022-10-08T03:35:23.596Z,0.93
2022-10-08T03:37:53.113Z,1.23
2022-10-08T03:40:21.294Z,1.40
2022-10-08T03:42:49.577Z,1.42
2022-10-08T03:45:17.631Z,1.55
2022-10-08T03:47:45.513Z,0.93
2022-10-08T03:50:14.788Z,0.93
2022-10-08T03:52:42.692Z,1.02
2022-10-08T03:55:10.936Z,1.15
2022-10-08T03:57:38.797Z,0.90
2022-10-08T04:00:07.725Z,1.00
2022-10-08T04:02:35.723Z,1.35
2022-10-08T04:05:03.633Z,1.23
2022-10-08T04:07:32.945Z,0.77
2022-10-08T04:10:00.798Z,1.10
2022-10-08T04:12:30.033Z,1.38
2022-10-08T04:14:57.897Z,1.05
2022-10-08T04:17:25.825Z,0.98
2022-10-08T04:19:53.722Z,0.73
2022-10-08T04:22:21.623Z,1.00
2022-10-08T04:24:50.866Z,0.82
2022-10-08T04:27:18.750Z,0.73
2022-10-08T04:29:46.606Z,0.60
2022-10-08T04:32:14.461Z,1.30
2022-10-08T04:34:42.310Z,1.00
2022-10-08T04:37:10.181Z,1.00
2022-10-08T04:39:38.012Z,1.05
2022-10-08T04:42:07.365Z,1.20
2022-10-08T04:44:35.258Z,0.90
2022-10-08T04:47:03.125Z,1.00
2022-10-08T04:49:30.986Z,0.90
2022-10-08T04:51:58.856Z,0.63
2022-10-08T04:54:27.197Z,0.80
2022-10-08T04:56:55.240Z,0.88
2022-10-08T04:59:24.517Z,0.70
2022-10-08T05:01:52.991Z,0.95
2022-10-08T05:04:20.942Z,0.70
2022-10-08T05:06:48.861Z,0.80
2022-10-08T05:09:16.925Z,0.70
2022-10-08T05:11:44.803Z,0.60
2022-10-08T05:14:12.701Z,1.02
2022-10-08T05:16:41.932Z,0.70
2022-10-08T05:19:10.149Z,0.70
2022-10-08T05:21:38.063Z,0.68
2022-10-08T05:24:08.177Z,1.05
2022-10-08T05:26:57.549Z,0.57
2022-10-08T05:29:26.481Z,0.60
2022-10-08T05:31:55.755Z,0.80
2022-10-08T05:34:24.056Z,0.80
2022-10-08T05:36:51.925Z,0.75
2022-10-08T05:39:19.814Z,0.82
2022-10-08T05:41:47.694Z,0.80
2022-10-08T05:44:15.604Z,0.90
2022-10-08T05:46:43.585Z,0.75
2022-10-08T05:49:18.837Z,0.60
2022-10-08T05:51:46.913Z,0.60
2022-10-08T05:54:15.174Z,0.60
2022-10-08T05:56:43.446Z,0.90
2022-10-08T05:59:16.949Z,0.80
2022-10-08T06:01:45.249Z,0.73
2022-10-08T06:04:15.254Z,0.80
2022-10-08T06:06:44.476Z,0.73
2022-10-08T06:09:14.379Z,0.70
2022-10-08T06:11:43.556Z,0.80
2022-10-08T06:14:12.742Z,0.70
2022-10-08T06:16:41.357Z,0.65
2022-10-08T06:19:10.160Z,0.52
2022-10-08T06:21:39.440Z,0.73
2022-10-08T06:24:09.693Z,0.45
2022-10-08T06:26:38.857Z,0.93
2022-10-08T06:29:07.711Z,0.68
2022-10-08T06:31:36.392Z,0.90
2022-10-08T06:34:05.182Z,0.50
2022-10-08T06:36:34.643Z,0.75
2022-10-08T06:39:07.161Z,0.90
2022-10-08T06:41:35.795Z,0.70
2022-10-08T06:44:05.175Z,0.73
2022-10-08T06:46:33.748Z,0.63
2022-10-08T06:49:02.664Z,0.88
2022-10-08T06:51:31.278Z,0.80
2022-10-08T06:54:06.983Z,0.68
2022-10-08T06:56:38.567Z,0.70
2022-10-08T06:59:07.322Z,0.70
2022-10-08T07:01:36.147Z,0.70
2022-10-08T07:04:05.662Z,1.05
2022-10-08T07:06:33.846Z,0.60
2022-10-08T07:09:03.141Z,0.93
2022-10-08T07:11:32.397Z,0.80
2022-10-08T07:14:01.917Z,0.60
2022-10-08T07:16:29.898Z,0.85
2022-10-08T07:18:58.865Z,0.47
2022-10-08T07:21:27.508Z,0.93
2022-10-08T07:23:55.679Z,0.70
2022-10-08T07:26:24.874Z,0.80
2022-10-08T07:28:55.372Z,0.60
2022-10-08T07:31:28.076Z,0.80
2022-10-08T07:33:56.355Z,0.80
2022-10-08T07:36:25.783Z,0.80
2022-10-08T07:38:57.509Z,0.68
2022-10-08T07:41:26.177Z,0.65
2022-10-08T07:43:55.384Z,0.85
2022-10-08T07:46:24.641Z,0.93
2022-10-08T07:48:54.749Z,0.93
2022-10-08T07:51:22.637Z,1.10
2022-10-08T07:53:50.864Z,0.90
2022-10-08T07:56:20.733Z,1.17
2022-10-08T07:58:49.625Z,1.35
2022-10-08T08:01:21.205Z,1.10
2022-10-08T08:03:55.607Z,1.10
2022-10-08T08:06:25.190Z,1.35
2022-10-08T08:08:53.569Z,1.02
2022-10-08T08:11:23.535Z,1.05
2022-10-08T08:13:52.192Z,1.20
2022-10-08T08:16:21.683Z,1.00
2022-10-08T08:18:51.397Z,1.23
2022-10-08T08:21:22.649Z,0.95
2022-10-08T08:23:53.381Z,1.30
2022-10-08T08:26:25.076Z,1.05
2022-10-08T08:28:54.314Z,1.00
2022-10-08T08:31:25.224Z,1.45
2022-10-08T08:33:54.967Z,1.35
2022-10-08T08:36:28.777Z,1.10
2022-10-08T08:38:57.861Z,0.80
2022-10-08T08:41:39.513Z,1.17
2022-10-08T08:44:12.419Z,1.75
2022-10-08T08:46:44.580Z,1.45
2022-10-08T08:49:20.963Z,1.25
2022-10-08T08:51:50.353Z,1.13
2022-10-08T08:54:18.298Z,1.20
2022-10-08T08:56:46.361Z,1.23
2022-10-08T08:59:25.482Z,1.35
2022-10-08T09:01:57.251Z,1.15
2022-10-08T09:04:32.978Z,1.38
2022-10-08T09:07:06.305Z,1.23
2022-10-08T09:09:41.039Z,1.55
2022-10-08T09:12:20.786Z,1.60
2022-10-08T09:14:54.467Z,1.23
2022-10-08T09:17:29.307Z,1.30
2022-10-08T09:19:57.409Z,1.83
2022-10-08T09:22:29.621Z,1.30
2022-10-08T09:25:01.245Z,1.40
2022-10-08T09:27:44.931Z,1.63
2022-10-08T09:30:31.449Z,1.52
2022-10-08T09:33:01.519Z,1.35
2022-10-08T09:35:29.472Z,1.73
2022-10-08T09:38:02.170Z,1.02
2022-10-08T09:40:33.578Z,1.60
2022-10-08T09:43:11.792Z,1.30
2022-10-08T09:45:41.534Z,1.27
2022-10-08T09:48:21.564Z,1.60
2022-10-08T09:50:56.293Z,1.17
2022-10-08T09:53:29.515Z,1.48
2022-10-08T09:56:00.515Z,1.23
2022-10-08T09:58:32.298Z,1.40
2022-10-08T10:01:06.820Z,1.25
2022-10-08T10:03:36.441Z,1.35
2022-10-08T10:06:04.786Z,1.52
2022-10-08T10:08:51.592Z,1.23
2022-10-08T10:11:26.789Z,1.17
2022-10-08T10:13:57.234Z,1.60
2022-10-08T10:16:28.156Z,1.23
2022-10-08T10:19:00.603Z,1.35
2022-10-08T10:21:36.900Z,1.40
2022-10-08T10:24:29.173Z,1.00
2022-10-08T10:27:00.892Z,1.00
2022-10-08T10:29:38.721Z,1.42
2022-10-08T10:32:14.554Z,1.10
2022-10-08T10:34:46.854Z,1.13
2022-10-08T10:37:20.129Z,1.00
2022-10-08T10:39:53.782Z,1.20
2022-10-08T10:42:31.016Z,1.52
2022-10-08T10:45:04.473Z,1.20
2022-10-08T10:47:33.349Z,0.80
2022-10-08T10:50:02.822Z,1.55
2022-10-08T10:52:45.599Z,1.00
2022-10-08T10:55:23.576Z,1.27
2022-10-08T10:58:22.519Z,1.02
2022-10-08T11:00:58.385Z,1.30
2022-10-08T11:03:36.249Z,1.60
2022-10-08T11:06:22.569Z,1.38
2022-10-08T11:08:57.145Z,0.90
2022-10-08T11:11:33.462Z,1.13
2022-10-08T11:14:36.821Z,1.40
2022-10-08T11:17:18.669Z,1.30
2022-10-08T11:19:57.443Z,1.20
2022-10-08T11:22:34.181Z,1.30
2022-10-08T11:25:20.833Z,0.95
2022-10-08T11:28:02.233Z,1.25
2022-10-08T11:30:45.352Z,1.42
2022-10-08T11:33:16.494Z,1.13
2022-10-08T11:35:51.099Z,1.60
2022-10-08T11:38:26.115Z,1.73
2022-10-08T11:41:00.262Z,68.72
2022-10-08T11:43:38.314Z,377.58
2022-10-08T11:46:29.550Z,495.52
2022-10-08T11:52:14.936Z,246.20
2022-10-08T11:54:43.032Z,155.98
2022-10-08T11:57:20.296Z,130.68
2022-10-08T11:59:56.858Z,94.50
2022-10-08T12:02:28.086Z,78.40
2022-10-08T12:04:58.488Z,58.75
2022-10-08T12:07:31.788Z,51.10
2022-10-08T12:10:30.051Z,40.97
2022-10-08T12:13:29.741Z,33.88
2022-10-08T12:16:07.961Z,29.02
2022-10-08T12:18:54.202Z,26.95
2022-10-08T12:21:52.395Z,24.77
2022-10-08T12:24:53.840Z,20.73
2022-10-08T12:27:23.836Z,20.30
2022-10-08T12:29:55.713Z,18.45
2022-10-08T12:32:26.264Z,17.63
2022-10-08T12:34:54.396Z,16.45
2022-10-08T12:37:46.626Z,14.55
2022-10-08T12:40:25.061Z,12.18
2022-10-08T12:43:09.106Z,12.25
2022-10-08T12:45:49.064Z,11.45
2022-10-08T12:48:32.068Z,10.02
2022-10-08T12:51:10.284Z,9.68
2022-10-08T12:53:38.542Z,9.32
2022-10-08T12:56:06.514Z,7.72
2022-10-08T12:58:37.709Z,7.95
2022-10-08T13:01:07.023Z,8.65
2022-10-08T13:03:36.408Z,6.60
2022-10-08T13:06:17.098Z,6.65
2022-10-08T13:08:45.064Z,6.60
2022-10-08T13:11:15.274Z,6.15
2022-10-08T13:13:45.981Z,5.38
2022-10-08T13:16:16.113Z,4.85
2022-10-08T13:18:47.356Z,4.88
2022-10-08T13:21:36.722Z,5.00
2022-10-08T13:24:20.989Z,5.10
2022-10-08T13:26:50.786Z,4.55
2022-10-08T13:29:30.224Z,3.90
2022-10-08T13:32:00.268Z,4.30
2022-10-08T13:34:31.976Z,4.30
2022-10-08T13:37:02.954Z,3.72
2022-10-08T13:39:34.323Z,3.67
2022-10-08T13:42:08.153Z,3.45
2022-10-08T13:44:38.236Z,3.42
2022-10-08T13:47:06.396Z,3.50
2022-10-08T13:49:36.140Z,3.22
2022-10-08T13:52:04.248Z,3.10
2022-10-08T13:54:34.530Z,2.47
2022-10-08T13:57:02.857Z,2.58
2022-10-08T13:59:31.135Z,2.53
2022-10-08T14:01:59.106Z,2.90
2022-10-08T14:04:27.014Z,2.42
2022-10-08T14:06:58.847Z,2.50
2022-10-08T14:09:30.283Z,1.95
2022-10-08T14:12:01.338Z,2.35
2022-10-08T14:14:29.646Z,2.42
2022-10-08T14:16:57.581Z,2.40
2022-10-08T14:19:25.562Z,3.00
2022-10-08T14:21:57.748Z,3.22
2022-10-08T14:24:25.665Z,2.65
2022-10-08T14:26:53.534Z,2.58
2022-10-08T14:29:21.561Z,2.95
2022-10-08T14:31:49.482Z,2.63
2022-10-08T14:34:17.600Z,2.83
2022-10-08T14:36:45.571Z,3.47
2022-10-08T14:39:14.816Z,2.45
2022-10-08T14:41:44.302Z,2.60
2022-10-08T14:44:13.325Z,2.15
2022-10-08T14:46:41.202Z,2.47
2022-10-08T14:49:09.085Z,2.78
2022-10-08T14:51:38.760Z,2.72
2022-10-08T14:54:07.310Z,2.03
2022-10-08T14:56:43.912Z,2.05
2022-10-08T14:59:12.323Z,1.98
2022-10-08T15:01:40.838Z,2.05
2022-10-08T15:04:09.024Z,1.98
2022-10-08T15:06:38.133Z,1.90
2022-10-08T15:09:06.343Z,2.20
2022-10-08T15:11:34.228Z,1.40
2022-10-08T15:14:03.530Z,1.63
2022-10-08T15:16:31.542Z,1.90
2022-10-08T15:18:59.558Z,1.52
2022-10-08T15:21:27.549Z,1.40
2022-10-08T15:23:56.981Z,1.20
2022-10-08T15:26:24.973Z,1.50
2022-10-08T15:28:53.695Z,1.30
2022-10-08T15:31:25.128Z,1.48
2022-10-08T15:34:01.890Z,1.08
2022-10-08T15:36:31.511Z,1.10
2022-10-08T15:39:01.145Z,1.20
2022-10-08T15:41:30.422Z,1.23
2022-10-08T15:44:09.398Z,1.20
2022-10-08T15:46:39.018Z,0.93
2022-10-08T15:49:06.952Z,1.20
2022-10-08T15:51:34.985Z,1.00
2022-10-08T15:54:03.113Z,1.33
2022-10-08T15:56:31.592Z,1.38
2022-10-08T15:59:00.125Z,1.27
2022-10-08T16:01:29.603Z,1.25
2022-10-08T16:04:00.172Z,1.30
2022-10-08T16:06:29.847Z,1.05
2022-10-08T16:09:03.204Z,0.90
2022-10-08T16:11:32.746Z,0.88
2022-10-08T16:14:02.537Z,1.05
2022-10-08T16:16:31.085Z,1.17
2022-10-08T16:19:02.193Z,1.17
2022-10-08T16:21:31.906Z,1.30
2022-10-08T16:24:00.762Z,1.30
2022-10-08T16:26:31.754Z,1.40
2022-10-08T16:29:01.140Z,1.38
2022-10-08T16:31:30.467Z,1.20
2022-10-08T16:34:01.486Z,1.10
2022-10-08T16:36:31.500Z,0.90
2022-10-08T16:38:59.646Z,1.30
2022-10-08T16:41:29.791Z,1.00
2022-10-08T16:44:00.029Z,1.08
2022-10-08T16:46:30.484Z,1.05
2022-10-08T16:49:01.744Z,1.30
2022-10-08T16:51:32.105Z,0.88
2022-10-08T16:54:01.918Z,1.42
2022-10-08T16:56:31.398Z,1.25
2022-10-08T16:59:01.273Z,1.48
2022-10-08T17:01:29.703Z,1.55
2022-10-08T17:03:58.329Z,1.08
2022-10-08T17:06:29.219Z,1.27
2022-10-08T17:08:58.283Z,1.15
2022-10-08T17:11:26.620Z,1.27
2022-10-08T17:13:56.683Z,1.05
2022-10-08T17:16:27.770Z,0.90
2022-10-08T17:18:57.812Z,1.00
2022-10-08T17:21:27.629Z,1.55
2022-10-08T17:23:58.369Z,1.02
2022-10-08T17:26:28.653Z,1.23
2022-10-08T17:28:57.257Z,1.00
2022-10-08T17:31:27.300Z,1.25
2022-10-08T17:33:55.176Z,1.88
2022-10-08T17:36:25.885Z,1.15
2022-10-08T17:38:57.307Z,1.10
2022-10-08T17:41:27.346Z,1.20
2022-10-08T17:43:57.042Z,1.40
2022-10-08T17:46:26.517Z,1.95
2022-10-08T17:48:55.075Z,1.55
2022-10-08T17:51:25.164Z,1.45
2022-10-08T17:53:55.960Z,1.40
2022-10-08T17:56:24.680Z,1.88
2022-10-08T17:58:52.655Z,1.20
2022-10-08T18:01:22.325Z,1.40
2022-10-08T18:03:52.261Z,2.75
2022-10-08T18:06:20.926Z,2.72
2022-10-08T18:08:49.060Z,1.73
2022-10-08T18:11:18.317Z,2.22
2022-10-08T18:13:46.329Z,1.33
2022-10-08T18:16:15.802Z,1.35
2022-10-08T18:18:45.565Z,1.58
2022-10-08T18:21:14.668Z,1.67
2022-10-08T18:23:43.114Z,1.38
2022-10-08T18:26:16.052Z,1.50
2022-10-08T18:28:45.629Z,1.27
2022-10-08T18:31:15.029Z,1.35
2022-10-08T18:33:44.665Z,1.30
2022-10-08T18:36:14.414Z,1.08
2022-10-08T18:38:43.953Z,1.40
2022-10-08T18:41:13.772Z,1.10
2022-10-08T18:43:41.773Z,1.10
2022-10-08T18:46:11.704Z,1.15
2022-10-08T18:48:39.785Z,1.08
2022-10-08T18:51:09.436Z,1.08
2022-10-08T18:53:39.982Z,1.00
2022-10-08T18:56:09.858Z,1.58
2022-10-08T18:58:38.137Z,1.10
2022-10-08T19:01:07.227Z,1.35
2022-10-08T19:03:36.567Z,1.20
2022-10-08T19:06:08.097Z,1.23
2022-10-08T19:08:36.226Z,1.65
2022-10-08T19:11:10.758Z,5.22
2022-10-08T19:13:38.772Z,3.00
2022-10-08T19:16:13.251Z,1.88
2022-10-08T19:18:44.291Z,1.90
2022-10-08T19:21:14.219Z,1.60
2022-10-08T19:23:42.255Z,2.00
2022-10-08T19:26:10.458Z,1.55
2022-10-08T19:28:39.814Z,1.50
2022-10-08T19:31:15.818Z,1.15
2022-10-08T19:33:49.831Z,1.77
2022-10-08T19:36:18.596Z,1.30
2022-10-08T19:38:52.428Z,1.77
2022-10-08T19:41:21.066Z,1.75
2022-10-08T19:43:51.755Z,2.60
2022-10-08T19:46:20.694Z,2.92
2022-10-08T19:48:51.168Z,1.90
2022-10-08T19:51:19.998Z,1.63
2022-10-08T19:53:51.518Z,2.00
2022-10-08T19:56:21.845Z,1.90
2022-10-08T19:58:53.275Z,1.40
2022-10-08T20:01:23.550Z,1.17
2022-10-08T20:03:55.976Z,1.42
2022-10-08T20:06:26.092Z,1.52
2022-10-08T20:08:54.670Z,1.95
2022-10-08T20:11:22.939Z,2.45
2022-10-08T20:13:53.492Z,1.80
2022-10-08T20:16:23.268Z,1.50
2022-10-08T20:18:52.655Z,1.50
2022-10-08T20:21:23.038Z,1.42
2022-10-08T20:23:51.067Z,1.35
2022-10-08T20:26:20.825Z,1.35
2022-10-08T20:28:50.737Z,1.40
2022-10-08T20:31:20.792Z,1.40
2022-10-08T20:33:49.556Z,1.75
2022-10-08T20:36:18.397Z,1.70
2022-10-08T20:38:47.706Z,1.75
2022-10-08T20:41:15.590Z,2.05
2022-10-08T20:43:43.848Z,1.13
2022-10-08T20:46:13.622Z,1.48
2022-10-08T20:48:44.435Z,1.20
2022-10-08T20:51:14.985Z,1.17
2022-10-08T20:53:49.269Z,1.30
2022-10-08T20:56:18.322Z,1.83
2022-10-08T20:58:46.926Z,1.58
2022-10-08T21:01:17.810Z,1.25
2022-10-08T21:03:46.909Z,1.33
2022-10-08T21:06:16.949Z,1.27
2022-10-08T21:08:46.549Z,1.27
2022-10-08T21:11:17.652Z,1.10
2022-10-08T21:13:46.125Z,1.25
2022-10-08T21:16:16.272Z,0.88
2022-10-08T21:18:46.125Z,1.05
2022-10-08T21:21:15.768Z,1.30
2022-10-08T21:23:43.931Z,1.00
2022-10-08T21:26:16.389Z,1.30
2022-10-08T21:28:48.564Z,1.10
2022-10-08T21:31:17.675Z,1.13
2022-10-08T21:33:47.142Z,1.00
2022-10-08T21:36:17.242Z,2.13
2022-10-08T21:38:45.702Z,1.13
2022-10-08T21:41:17.040Z,1.13
2022-10-08T21:43:46.768Z,1.20
2022-10-08T21:46:16.446Z,1.15
2022-10-08T21:48:44.981Z,0.90
2022-10-08T21:51:15.185Z,1.10
2022-10-08T21:53:46.657Z,1.20
2022-10-08T21:56:19.373Z,0.95
2022-10-08T21:58:49.042Z,1.30
2022-10-08T22:01:23.140Z,1.40
2022-10-08T22:03:55.391Z,1.00
2022-10-08T22:06:23.778Z,0.98
2022-10-08T22:08:52.452Z,1.08
2022-10-08T22:11:22.030Z,1.20
2022-10-08T22:13:50.501Z,0.90
2022-10-08T22:16:21.077Z,1.10
2022-10-08T22:18:49.464Z,1.15
2022-10-08T22:21:19.291Z,1.20
2022-10-08T22:23:47.788Z,0.88
2022-10-08T22:26:17.611Z,0.88
2022-10-08T22:28:47.334Z,0.77
2022-10-08T22:31:17.067Z,0.80
2022-10-08T22:33:45.025Z,0.68
2022-10-08T22:36:15.483Z,0.73
2022-10-08T22:38:44.644Z,0.70
2022-10-08T22:41:14.770Z,0.80
2022-10-08T22:43:43.003Z,0.30
2022-10-08T22:46:16.973Z,0.70
2022-10-08T22:48:45.842Z,0.68
2022-10-08T22:51:15.640Z,0.70
2022-10-08T22:53:43.700Z,0.82
2022-10-08T22:56:13.678Z,0.60
2022-10-08T22:58:41.622Z,0.70
2022-10-08T23:01:11.592Z,0.68
2022-10-08T23:03:41.507Z,0.63
2022-10-08T23:06:14.613Z,0.63
2022-10-08T23:08:42.979Z,0.60
2022-10-08T23:11:11.516Z,0.75
2022-10-08T23:13:39.662Z,0.90
2022-10-08T23:16:09.807Z,0.45
2022-10-08T23:18:41.217Z,0.73
2022-10-08T23:21:12.330Z,0.60
2022-10-08T23:23:40.987Z,0.50
2022-10-08T23:26:10.055Z,1.00
2022-10-08T23:28:39.415Z,0.90
2022-10-08T23:31:10.216Z,0.80
2022-10-08T23:33:42.081Z,0.40
2022-10-08T23:36:11.058Z,0.80
2022-10-08T23:38:39.182Z,0.57
2022-10-08T23:41:09.384Z,0.73
2022-10-08T23:43:39.189Z,0.60
2022-10-08T23:46:08.538Z,0.40
2022-10-08T23:48:36.783Z,0.60
2022-10-08T23:51:07.150Z,0.50
2022-10-08T23:53:36.090Z,0.40
2022-10-08T23:56:04.476Z,0.65
2022-10-08T23:58:32.909Z,0.60
